sensor_id;sensor_type;location;lat;lon;timestamp;temperature;humidity
25556;DHT22;13447;57.174;-2.112;2022-11-04T00:02:14;4.30;99.90
25556;DHT22;13447;57.174;-2.112;2022-11-04T00:04:41;4.30;99.90
25556;DHT22;13447;57.174;-2.112;2022-11-04T00:07:08;4.20;99.90
25556;DHT22;13447;57.174;-2.112;2022-11-04T00:09:54;4.20;99.90
25556;DHT22;13447;57.174;-2.112;2022-11-04T00:12:21;4.20;99.90
25556;DHT22;13447;57.174;-2.112;2022-11-04T00:14:51;4.10;99.90
25556;DHT22;13447;57.174;-2.112;2022-11-04T00:17:19;4.10;99.90
25556;DHT22;13447;57.174;-2.112;2022-11-04T00:19:52;4.00;99.90
25556;DHT22;13447;57.174;-2.112;2022-11-04T00:22:40;3.90;99.90
25556;DHT22;13447;57.174;-2.112;2022-11-04T00:25:26;3.90;99.90
25556;DHT22;13447;57.174;-2.112;2022-11-04T00:28:13;3.80;99.90
25556;DHT22;13447;57.174;-2.112;2022-11-04T00:31:01;3.80;99.90
25556;DHT22;13447;57.174;-2.112;2022-11-04T00:33:48;3.60;99.90
25556;DHT22;13447;57.174;-2.112;2022-11-04T00:36:15;3.50;99.90
25556;DHT22;13447;57.174;-2.112;2022-11-04T00:38:42;3.60;99.90
25556;DHT22;13447;57.174;-2.112;2022-11-04T00:41:09;3.50;99.90
25556;DHT22;13447;57.174;-2.112;2022-11-04T00:43:57;3.40;99.90
25556;DHT22;13447;57.174;-2.112;2022-11-04T00:46:25;3.40;99.90
25556;DHT22;13447;57.174;-2.112;2022-11-04T00:48:52;3.40;99.90
25556;DHT22;13447;57.174;-2.112;2022-11-04T00:51:20;3.40;99.90
25556;DHT22;13447;57.174;-2.112;2022-11-04T00:53:47;3.40;99.90
25556;DHT22;13447;57.174;-2.112;2022-11-04T00:56:14;3.50;99.90
25556;DHT22;13447;57.174;-2.112;2022-11-04T00:58:42;3.60;99.90
25556;DHT22;13447;57.174;-2.112;2022-11-04T01:01:11;3.70;99.90
25556;DHT22;13447;57.174;-2.112;2022-11-04T01:03:39;3.80;99.90
25556;DHT22;13447;57.174;-2.112;2022-11-04T01:06:06;3.90;99.90
25556;DHT22;13447;57.174;-2.112;2022-11-04T01:08:33;4.00;99.90
25556;DHT22;13447;57.174;-2.112;2022-11-04T01:11:04;4.10;99.90
25556;DHT22;13447;57.174;-2.112;2022-11-04T01:13:31;4.10;99.90
25556;DHT22;13447;57.174;-2.112;2022-11-04T01:16:04;4.10;99.90
25556;DHT22;13447;57.174;-2.112;2022-11-04T01:18:32;4.00;99.90
25556;DHT22;13447;57.174;-2.112;2022-11-04T01:21:00;4.10;99.90
25556;DHT22;13447;57.174;-2.112;2022-11-04T01:23:30;4.20;99.90
25556;DHT22;13447;57.174;-2.112;2022-11-04T01:25:57;4.10;99.90
25556;DHT22;13447;57.174;-2.112;2022-11-04T01:28:24;4.10;99.90
25556;DHT22;13447;57.174;-2.112;2022-11-04T01:30:51;4.20;99.90
25556;DHT22;13447;57.174;-2.112;2022-11-04T01:33:18;4.20;99.90
25556;DHT22;13447;57.174;-2.112;2022-11-04T01:35:45;4.20;99.90
25556;DHT22;13447;57.174;-2.112;2022-11-04T01:38:12;4.00;99.90
25556;DHT22;13447;57.174;-2.112;2022-11-04T01:40:39;3.80;99.90
25556;DHT22;13447;57.174;-2.112;2022-11-04T01:43:14;3.80;99.90
25556;DHT22;13447;57.174;-2.112;2022-11-04T01:45:55;3.70;99.90
25556;DHT22;13447;57.174;-2.112;2022-11-04T01:48:26;3.60;99.90
25556;DHT22;13447;57.174;-2.112;2022-11-04T01:50:55;3.50;99.90
25556;DHT22;13447;57.174;-2.112;2022-11-04T01:53:33;3.40;99.90
25556;DHT22;13447;57.174;-2.112;2022-11-04T01:56:04;3.50;99.90
25556;DHT22;13447;57.174;-2.112;2022-11-04T01:58:46;3.60;99.90
25556;DHT22;13447;57.174;-2.112;2022-11-04T02:01:14;3.50;99.90
25556;DHT22;13447;57.174;-2.112;2022-11-04T02:03:46;3.40;99.90
25556;DHT22;13447;57.174;-2.112;2022-11-04T02:06:15;3.40;99.90
25556;DHT22;13447;57.174;-2.112;2022-11-04T02:08:43;3.40;99.90
25556;DHT22;13447;57.174;-2.112;2022-11-04T02:11:10;3.40;99.90
25556;DHT22;13447;57.174;-2.112;2022-11-04T02:13:57;3.30;99.90
25556;DHT22;13447;57.174;-2.112;2022-11-04T02:16:42;3.20;99.90
25556;DHT22;13447;57.174;-2.112;2022-11-04T02:30:17;2.90;99.90
25556;DHT22;13447;57.174;-2.112;2022-11-04T02:33:10;2.80;99.90
25556;DHT22;13447;57.174;-2.112;2022-11-04T02:36:03;2.80;99.90
25556;DHT22;13447;57.174;-2.112;2022-11-04T02:38:54;2.90;99.90
25556;DHT22;13447;57.174;-2.112;2022-11-04T02:41:53;3.20;99.90
25556;DHT22;13447;57.174;-2.112;2022-11-04T02:44:36;3.30;99.90
25556;DHT22;13447;57.174;-2.112;2022-11-04T02:47:06;3.40;99.90
25556;DHT22;13447;57.174;-2.112;2022-11-04T02:49:38;3.40;99.90
25556;DHT22;13447;57.174;-2.112;2022-11-04T02:52:18;3.50;99.90
25556;DHT22;13447;57.174;-2.112;2022-11-04T02:54:55;3.50;99.90
25556;DHT22;13447;57.174;-2.112;2022-11-04T02:57:28;3.40;99.90
25556;DHT22;13447;57.174;-2.112;2022-11-04T03:00:00;3.40;99.90
25556;DHT22;13447;57.174;-2.112;2022-11-04T03:02:34;3.40;99.90
25556;DHT22;13447;57.174;-2.112;2022-11-04T03:05:05;3.40;99.90
25556;DHT22;13447;57.174;-2.112;2022-11-04T03:07:38;3.50;99.90
25556;DHT22;13447;57.174;-2.112;2022-11-04T03:10:12;3.40;99.90
25556;DHT22;13447;57.174;-2.112;2022-11-04T03:12:57;3.30;99.90
25556;DHT22;13447;57.174;-2.112;2022-11-04T03:15:28;3.30;99.90
25556;DHT22;13447;57.174;-2.112;2022-11-04T03:20:44;3.20;99.90
25556;DHT22;13447;57.174;-2.112;2022-11-04T03:23:12;3.20;99.90
25556;DHT22;13447;57.174;-2.112;2022-11-04T03:25:44;3.20;99.90
25556;DHT22;13447;57.174;-2.112;2022-11-04T03:28:18;3.30;99.90
25556;DHT22;13447;57.174;-2.112;2022-11-04T03:30:50;3.30;99.90
25556;DHT22;13447;57.174;-2.112;2022-11-04T03:35:46;3.10;99.90
25556;DHT22;13447;57.174;-2.112;2022-11-04T03:38:13;3.10;99.90
25556;DHT22;13447;57.174;-2.112;2022-11-04T03:40:41;3.00;99.90
25556;DHT22;13447;57.174;-2.112;2022-11-04T03:43:10;3.00;99.90
25556;DHT22;13447;57.174;-2.112;2022-11-04T03:45:40;2.90;99.90
25556;DHT22;13447;57.174;-2.112;2022-11-04T03:48:07;2.90;99.90
25556;DHT22;13447;57.174;-2.112;2022-11-04T03:50:43;2.90;99.90
25556;DHT22;13447;57.174;-2.112;2022-11-04T03:53:12;3.00;99.90
25556;DHT22;13447;57.174;-2.112;2022-11-04T04:00:53;3.20;99.90
25556;DHT22;13447;57.174;-2.112;2022-11-04T04:03:32;3.30;99.90
25556;DHT22;13447;57.174;-2.112;2022-11-04T04:11:18;3.50;99.90
25556;DHT22;13447;57.174;-2.112;2022-11-04T04:14:04;3.50;99.90
25556;DHT22;13447;57.174;-2.112;2022-11-04T04:16:40;3.50;99.90
25556;DHT22;13447;57.174;-2.112;2022-11-04T04:19:14;3.50;99.90
25556;DHT22;13447;57.174;-2.112;2022-11-04T04:22:08;3.60;99.90
25556;DHT22;13447;57.174;-2.112;2022-11-04T04:24:38;3.80;99.90
25556;DHT22;13447;57.174;-2.112;2022-11-04T04:27:25;3.90;99.90
25556;DHT22;13447;57.174;-2.112;2022-11-04T04:30:04;3.80;99.90
25556;DHT22;13447;57.174;-2.112;2022-11-04T04:32:39;3.70;99.90
25556;DHT22;13447;57.174;-2.112;2022-11-04T04:35:08;3.60;99.90
25556;DHT22;13447;57.174;-2.112;2022-11-04T04:38:23;3.40;99.90
25556;DHT22;13447;57.174;-2.112;2022-11-04T04:41:12;3.30;99.90
25556;DHT22;13447;57.174;-2.112;2022-11-04T04:44:01;3.20;99.90
25556;DHT22;13447;57.174;-2.112;2022-11-04T04:46:47;3.10;99.90
25556;DHT22;13447;57.174;-2.112;2022-11-04T04:49:15;3.00;99.90
25556;DHT22;13447;57.174;-2.112;2022-11-04T04:51:45;3.00;99.90
25556;DHT22;13447;57.174;-2.112;2022-11-04T04:54:13;2.90;99.90
25556;DHT22;13447;57.174;-2.112;2022-11-04T04:56:40;2.90;99.90
25556;DHT22;13447;57.174;-2.112;2022-11-04T04:59:07;2.90;99.90
25556;DHT22;13447;57.174;-2.112;2022-11-04T05:01:34;2.90;99.90
25556;DHT22;13447;57.174;-2.112;2022-11-04T05:04:01;2.90;99.90
25556;DHT22;13447;57.174;-2.112;2022-11-04T05:06:28;2.80;99.90
25556;DHT22;13447;57.174;-2.112;2022-11-04T05:08:55;2.70;99.90
25556;DHT22;13447;57.174;-2.112;2022-11-04T05:11:22;2.70;99.90
25556;DHT22;13447;57.174;-2.112;2022-11-04T05:13:53;2.60;99.90
25556;DHT22;13447;57.174;-2.112;2022-11-04T05:16:20;2.60;99.90
25556;DHT22;13447;57.174;-2.112;2022-11-04T05:18:47;2.50;99.90
25556;DHT22;13447;57.174;-2.112;2022-11-04T05:21:14;2.60;99.90
25556;DHT22;13447;57.174;-2.112;2022-11-04T05:23:42;2.50;99.90
25556;DHT22;13447;57.174;-2.112;2022-11-04T05:26:08;2.50;99.90
25556;DHT22;13447;57.174;-2.112;2022-11-04T05:28:35;2.50;99.90
25556;DHT22;13447;57.174;-2.112;2022-11-04T05:31:05;2.50;99.90
25556;DHT22;13447;57.174;-2.112;2022-11-04T05:33:33;2.50;99.90
25556;DHT22;13447;57.174;-2.112;2022-11-04T05:38:34;2.60;99.90
25556;DHT22;13447;57.174;-2.112;2022-11-04T05:41:01;2.70;99.90
25556;DHT22;13447;57.174;-2.112;2022-11-04T05:43:28;2.80;99.90
25556;DHT22;13447;57.174;-2.112;2022-11-04T05:45:58;3.00;99.90
25556;DHT22;13447;57.174;-2.112;2022-11-04T05:48:25;3.10;99.90
25556;DHT22;13447;57.174;-2.112;2022-11-04T05:50:53;3.20;99.90
25556;DHT22;13447;57.174;-2.112;2022-11-04T05:53:20;3.30;99.90
25556;DHT22;13447;57.174;-2.112;2022-11-04T05:55:47;3.40;99.90
25556;DHT22;13447;57.174;-2.112;2022-11-04T05:58:14;3.40;99.90
25556;DHT22;13447;57.174;-2.112;2022-11-04T06:00:41;3.30;99.90
25556;DHT22;13447;57.174;-2.112;2022-11-04T06:03:08;3.20;99.90
25556;DHT22;13447;57.174;-2.112;2022-11-04T06:05:41;3.20;99.90
25556;DHT22;13447;57.174;-2.112;2022-11-04T06:08:08;3.10;99.90
25556;DHT22;13447;57.174;-2.112;2022-11-04T06:10:36;2.90;99.90
25556;DHT22;13447;57.174;-2.112;2022-11-04T06:13:03;2.80;99.90
25556;DHT22;13447;57.174;-2.112;2022-11-04T06:15:30;2.80;99.90
25556;DHT22;13447;57.174;-2.112;2022-11-04T06:17:57;2.90;99.90
25556;DHT22;13447;57.174;-2.112;2022-11-04T06:20:24;2.80;99.90
25556;DHT22;13447;57.174;-2.112;2022-11-04T06:22:51;2.80;99.90
25556;DHT22;13447;57.174;-2.112;2022-11-04T06:25:18;2.90;99.90
25556;DHT22;13447;57.174;-2.112;2022-11-04T06:27:46;2.90;99.90
25556;DHT22;13447;57.174;-2.112;2022-11-04T06:30:13;2.90;99.90
25556;DHT22;13447;57.174;-2.112;2022-11-04T06:32:40;3.00;99.90
25556;DHT22;13447;57.174;-2.112;2022-11-04T06:35:07;3.10;99.90
25556;DHT22;13447;57.174;-2.112;2022-11-04T06:37:34;3.20;99.90
25556;DHT22;13447;57.174;-2.112;2022-11-04T06:40:01;3.20;99.90
25556;DHT22;13447;57.174;-2.112;2022-11-04T06:42:28;3.20;99.90
25556;DHT22;13447;57.174;-2.112;2022-11-04T06:44:55;3.10;99.90
25556;DHT22;13447;57.174;-2.112;2022-11-04T06:47:22;3.00;99.90
25556;DHT22;13447;57.174;-2.112;2022-11-04T06:49:50;2.90;99.90
25556;DHT22;13447;57.174;-2.112;2022-11-04T06:52:17;2.90;99.90
25556;DHT22;13447;57.174;-2.112;2022-11-04T06:54:44;2.80;99.90
25556;DHT22;13447;57.174;-2.112;2022-11-04T06:57:13;2.80;99.90
25556;DHT22;13447;57.174;-2.112;2022-11-04T06:59:40;3.00;99.90
25556;DHT22;13447;57.174;-2.112;2022-11-04T07:02:09;2.90;99.90
25556;DHT22;13447;57.174;-2.112;2022-11-04T07:04:37;2.90;99.90
25556;DHT22;13447;57.174;-2.112;2022-11-04T07:07:04;2.90;99.90
25556;DHT22;13447;57.174;-2.112;2022-11-04T07:09:30;2.90;99.90
25556;DHT22;13447;57.174;-2.112;2022-11-04T07:11:57;3.10;99.90
25556;DHT22;13447;57.174;-2.112;2022-11-04T07:14:24;3.30;99.90
25556;DHT22;13447;57.174;-2.112;2022-11-04T07:16:51;3.50;99.90
25556;DHT22;13447;57.174;-2.112;2022-11-04T07:19:18;3.40;99.90
25556;DHT22;13447;57.174;-2.112;2022-11-04T07:21:45;3.40;99.90
25556;DHT22;13447;57.174;-2.112;2022-11-04T07:24:12;3.40;99.90
25556;DHT22;13447;57.174;-2.112;2022-11-04T07:26:39;3.40;99.90
25556;DHT22;13447;57.174;-2.112;2022-11-04T07:29:08;3.40;99.90
25556;DHT22;13447;57.174;-2.112;2022-11-04T07:31:37;3.30;99.90
25556;DHT22;13447;57.174;-2.112;2022-11-04T07:34:04;3.30;99.90
25556;DHT22;13447;57.174;-2.112;2022-11-04T07:36:31;3.30;99.90
25556;DHT22;13447;57.174;-2.112;2022-11-04T07:38:58;3.30;99.90
25556;DHT22;13447;57.174;-2.112;2022-11-04T07:41:25;3.30;99.90
25556;DHT22;13447;57.174;-2.112;2022-11-04T07:43:52;3.30;99.90
25556;DHT22;13447;57.174;-2.112;2022-11-04T07:46:20;3.30;99.90
25556;DHT22;13447;57.174;-2.112;2022-11-04T07:48:48;3.30;99.90
25556;DHT22;13447;57.174;-2.112;2022-11-04T07:51:17;3.30;99.90
25556;DHT22;13447;57.174;-2.112;2022-11-04T07:53:44;3.30;99.90
25556;DHT22;13447;57.174;-2.112;2022-11-04T07:56:12;3.30;99.90
25556;DHT22;13447;57.174;-2.112;2022-11-04T07:58:40;3.30;99.90
25556;DHT22;13447;57.174;-2.112;2022-11-04T08:01:13;3.30;99.90
25556;DHT22;13447;57.174;-2.112;2022-11-04T08:03:40;3.30;99.90
25556;DHT22;13447;57.174;-2.112;2022-11-04T08:06:09;3.30;99.90
25556;DHT22;13447;57.174;-2.112;2022-11-04T08:08:36;3.50;99.90
25556;DHT22;13447;57.174;-2.112;2022-11-04T08:11:09;3.60;99.90
25556;DHT22;13447;57.174;-2.112;2022-11-04T08:13:43;3.70;99.90
25556;DHT22;13447;57.174;-2.112;2022-11-04T08:16:13;3.70;99.90
25556;DHT22;13447;57.174;-2.112;2022-11-04T08:18:41;3.70;99.90
25556;DHT22;13447;57.174;-2.112;2022-11-04T08:21:09;3.80;99.90
25556;DHT22;13447;57.174;-2.112;2022-11-04T08:23:36;3.80;99.90
25556;DHT22;13447;57.174;-2.112;2022-11-04T08:26:11;3.90;99.90
25556;DHT22;13447;57.174;-2.112;2022-11-04T08:28:39;3.90;99.90
25556;DHT22;13447;57.174;-2.112;2022-11-04T08:31:19;3.90;99.90
25556;DHT22;13447;57.174;-2.112;2022-11-04T08:33:46;3.90;99.90
25556;DHT22;13447;57.174;-2.112;2022-11-04T08:36:16;4.20;99.90
25556;DHT22;13447;57.174;-2.112;2022-11-04T08:38:44;5.30;99.90
25556;DHT22;13447;57.174;-2.112;2022-11-04T08:41:13;6.30;99.90
25556;DHT22;13447;57.174;-2.112;2022-11-04T08:43:40;7.10;99.90
25556;DHT22;13447;57.174;-2.112;2022-11-04T08:46:09;7.70;99.90
25556;DHT22;13447;57.174;-2.112;2022-11-04T08:48:38;8.00;99.90
25556;DHT22;13447;57.174;-2.112;2022-11-04T08:51:11;8.20;99.90
25556;DHT22;13447;57.174;-2.112;2022-11-04T08:53:39;8.50;99.90
25556;DHT22;13447;57.174;-2.112;2022-11-04T08:56:18;9.20;99.90
25556;DHT22;13447;57.174;-2.112;2022-11-04T08:58:46;9.70;99.90
25556;DHT22;13447;57.174;-2.112;2022-11-04T09:01:14;9.90;99.90
25556;DHT22;13447;57.174;-2.112;2022-11-04T09:03:42;10.10;99.90
25556;DHT22;13447;57.174;-2.112;2022-11-04T09:06:12;10.30;99.90
25556;DHT22;13447;57.174;-2.112;2022-11-04T09:08:40;10.70;99.90
25556;DHT22;13447;57.174;-2.112;2022-11-04T09:11:10;11.10;99.90
25556;DHT22;13447;57.174;-2.112;2022-11-04T09:13:38;10.90;99.80
25556;DHT22;13447;57.174;-2.112;2022-11-04T09:16:06;10.80;99.90
25556;DHT22;13447;57.174;-2.112;2022-11-04T09:18:35;11.10;99.90
25556;DHT22;13447;57.174;-2.112;2022-11-04T09:21:04;11.40;99.90
25556;DHT22;13447;57.174;-2.112;2022-11-04T09:23:31;10.90;98.00
25556;DHT22;13447;57.174;-2.112;2022-11-04T09:26:04;9.60;99.90
25556;DHT22;13447;57.174;-2.112;2022-11-04T09:28:31;8.60;99.90
25556;DHT22;13447;57.174;-2.112;2022-11-04T09:30:58;8.00;99.90
25556;DHT22;13447;57.174;-2.112;2022-11-04T09:33:25;7.50;99.90
25556;DHT22;13447;57.174;-2.112;2022-11-04T09:35:56;7.40;99.90
25556;DHT22;13447;57.174;-2.112;2022-11-04T09:38:24;7.20;99.90
25556;DHT22;13447;57.174;-2.112;2022-11-04T09:40:51;7.40;99.90
25556;DHT22;13447;57.174;-2.112;2022-11-04T09:46:04;7.30;99.90
25556;DHT22;13447;57.174;-2.112;2022-11-04T09:48:36;7.20;99.90
25556;DHT22;13447;57.174;-2.112;2022-11-04T09:51:05;7.10;99.90
25556;DHT22;13447;57.174;-2.112;2022-11-04T09:54:03;7.20;99.90
25556;DHT22;13447;57.174;-2.112;2022-11-04T09:56:37;7.10;99.90
25556;DHT22;13447;57.174;-2.112;2022-11-04T09:59:05;7.10;99.90
25556;DHT22;13447;57.174;-2.112;2022-11-04T10:07:04;7.10;99.90
25556;DHT22;13447;57.174;-2.112;2022-11-04T10:09:53;7.10;99.90
25556;DHT22;13447;57.174;-2.112;2022-11-04T10:20:48;7.20;99.90
25556;DHT22;13447;57.174;-2.112;2022-11-04T10:28:34;7.30;99.90
25556;DHT22;13447;57.174;-2.112;2022-11-04T10:31:04;7.30;99.90
25556;DHT22;13447;57.174;-2.112;2022-11-04T10:33:39;7.40;99.90
25556;DHT22;13447;57.174;-2.112;2022-11-04T10:36:08;7.60;99.90
25556;DHT22;13447;57.174;-2.112;2022-11-04T10:38:48;7.70;99.90
25556;DHT22;13447;57.174;-2.112;2022-11-04T10:44:09;7.80;99.90
25556;DHT22;13447;57.174;-2.112;2022-11-04T10:51:39;7.90;99.90
25556;DHT22;13447;57.174;-2.112;2022-11-04T10:54:09;8.10;99.90
25556;DHT22;13447;57.174;-2.112;2022-11-04T10:56:41;8.20;99.90
25556;DHT22;13447;57.174;-2.112;2022-11-04T10:59:30;8.40;99.90
25556;DHT22;13447;57.174;-2.112;2022-11-04T11:02:01;8.70;99.90
25556;DHT22;13447;57.174;-2.112;2022-11-04T11:04:31;9.30;99.90
25556;DHT22;13447;57.174;-2.112;2022-11-04T11:07:01;10.20;99.90
25556;DHT22;13447;57.174;-2.112;2022-11-04T11:09:50;11.10;99.90
25556;DHT22;13447;57.174;-2.112;2022-11-04T11:12:24;11.80;99.90
25556;DHT22;13447;57.174;-2.112;2022-11-04T11:15:31;12.00;99.90
25556;DHT22;13447;57.174;-2.112;2022-11-04T11:18:13;12.20;99.90
25556;DHT22;13447;57.174;-2.112;2022-11-04T11:20:49;12.00;99.90
25556;DHT22;13447;57.174;-2.112;2022-11-04T11:23:36;11.80;99.90
25556;DHT22;13447;57.174;-2.112;2022-11-04T11:26:19;11.60;99.90
25556;DHT22;13447;57.174;-2.112;2022-11-04T11:28:52;11.50;99.90
25556;DHT22;13447;57.174;-2.112;2022-11-04T11:31:25;11.40;99.90
25556;DHT22;13447;57.174;-2.112;2022-11-04T11:34:12;11.40;99.90
25556;DHT22;13447;57.174;-2.112;2022-11-04T11:36:40;11.80;99.90
25556;DHT22;13447;57.174;-2.112;2022-11-04T11:41:55;12.80;99.90
25556;DHT22;13447;57.174;-2.112;2022-11-04T11:44:47;13.20;97.20
25556;DHT22;13447;57.174;-2.112;2022-11-04T11:50:13;13.60;96.00
25556;DHT22;13447;57.174;-2.112;2022-11-04T11:52:43;13.80;94.50
25556;DHT22;13447;57.174;-2.112;2022-11-04T11:55:33;13.80;93.80
25556;DHT22;13447;57.174;-2.112;2022-11-04T12:03:53;13.30;95.10
25556;DHT22;13447;57.174;-2.112;2022-11-04T12:19:18;12.70;97.60
25556;DHT22;13447;57.174;-2.112;2022-11-04T12:21:58;12.50;97.20
25556;DHT22;13447;57.174;-2.112;2022-11-04T12:30:10;12.30;98.00
25556;DHT22;13447;57.174;-2.112;2022-11-04T12:47:38;11.40;99.90
25556;DHT22;13447;57.174;-2.112;2022-11-04T12:56:06;11.30;99.90
25556;DHT22;13447;57.174;-2.112;2022-11-04T13:01:41;11.00;99.90
25556;DHT22;13447;57.174;-2.112;2022-11-04T13:06:59;11.00;99.90
25556;DHT22;13447;57.174;-2.112;2022-11-04T13:09:41;11.00;99.90
25556;DHT22;13447;57.174;-2.112;2022-11-04T13:14:54;10.90;99.90
25556;DHT22;13447;57.174;-2.112;2022-11-04T13:17:29;10.90;99.90
25556;DHT22;13447;57.174;-2.112;2022-11-04T13:22:46;10.90;99.90
25556;DHT22;13447;57.174;-2.112;2022-11-04T13:25:32;11.00;99.90
25556;DHT22;13447;57.174;-2.112;2022-11-04T13:28:01;11.00;99.90
25556;DHT22;13447;57.174;-2.112;2022-11-04T13:30:37;11.00;99.90
25556;DHT22;13447;57.174;-2.112;2022-11-04T13:36:26;11.10;99.90
25556;DHT22;13447;57.174;-2.112;2022-11-04T13:38:57;11.10;99.90
25556;DHT22;13447;57.174;-2.112;2022-11-04T13:44:25;11.00;99.90
25556;DHT22;13447;57.174;-2.112;2022-11-04T13:46:56;11.00;99.90
25556;DHT22;13447;57.174;-2.112;2022-11-04T13:49:30;11.00;99.90
25556;DHT22;13447;57.174;-2.112;2022-11-04T13:52:12;11.00;99.90
25556;DHT22;13447;57.174;-2.112;2022-11-04T13:57:16;11.00;99.90
25556;DHT22;13447;57.174;-2.112;2022-11-04T14:02:57;10.90;99.90
25556;DHT22;13447;57.174;-2.112;2022-11-04T14:18:28;10.90;99.90
25556;DHT22;13447;57.174;-2.112;2022-11-04T14:23:29;10.90;99.90
25556;DHT22;13447;57.174;-2.112;2022-11-04T14:26:08;10.90;99.90
25556;DHT22;13447;57.174;-2.112;2022-11-04T14:28:36;11.00;99.90
25556;DHT22;13447;57.174;-2.112;2022-11-04T14:31:08;11.00;99.90
25556;DHT22;13447;57.174;-2.112;2022-11-04T14:33:56;10.90;99.90
25556;DHT22;13447;57.174;-2.112;2022-11-04T14:36:24;10.90;99.90
25556;DHT22;13447;57.174;-2.112;2022-11-04T14:44:12;10.80;99.90
25556;DHT22;13447;57.174;-2.112;2022-11-04T14:46:44;10.80;99.90
25556;DHT22;13447;57.174;-2.112;2022-11-04T14:54:45;10.70;99.90
25556;DHT22;13447;57.174;-2.112;2022-11-04T14:57:16;10.60;99.90
25556;DHT22;13447;57.174;-2.112;2022-11-04T14:59:43;10.60;99.90
25556;DHT22;13447;57.174;-2.112;2022-11-04T15:02:17;10.60;99.90
25556;DHT22;13447;57.174;-2.112;2022-11-04T15:04:58;10.50;99.90
25556;DHT22;13447;57.174;-2.112;2022-11-04T15:07:33;10.40;99.90
25556;DHT22;13447;57.174;-2.112;2022-11-04T15:10:02;10.40;99.90
25556;DHT22;13447;57.174;-2.112;2022-11-04T15:12:30;10.30;99.90
25556;DHT22;13447;57.174;-2.112;2022-11-04T15:15:29;10.30;99.90
25556;DHT22;13447;57.174;-2.112;2022-11-04T15:18:01;10.30;99.90
25556;DHT22;13447;57.174;-2.112;2022-11-04T15:20:30;10.20;99.90
25556;DHT22;13447;57.174;-2.112;2022-11-04T15:23:00;10.10;99.90
25556;DHT22;13447;57.174;-2.112;2022-11-04T15:25:28;10.20;99.90
25556;DHT22;13447;57.174;-2.112;2022-11-04T15:27:56;10.30;99.90
25556;DHT22;13447;57.174;-2.112;2022-11-04T15:30:28;10.40;99.90
25556;DHT22;13447;57.174;-2.112;2022-11-04T15:33:00;10.30;99.90
25556;DHT22;13447;57.174;-2.112;2022-11-04T15:35:30;10.40;99.90
25556;DHT22;13447;57.174;-2.112;2022-11-04T15:38:00;10.40;99.90
25556;DHT22;13447;57.174;-2.112;2022-11-04T15:40:28;10.40;99.90
25556;DHT22;13447;57.174;-2.112;2022-11-04T15:42:58;10.40;99.90
25556;DHT22;13447;57.174;-2.112;2022-11-04T15:45:36;10.30;99.90
25556;DHT22;13447;57.174;-2.112;2022-11-04T15:48:27;10.30;99.90
25556;DHT22;13447;57.174;-2.112;2022-11-04T15:51:22;10.20;99.90
25556;DHT22;13447;57.174;-2.112;2022-11-04T15:53:57;10.20;99.90
25556;DHT22;13447;57.174;-2.112;2022-11-04T15:56:49;10.20;99.90
25556;DHT22;13447;57.174;-2.112;2022-11-04T15:59:33;10.10;99.90
25556;DHT22;13447;57.174;-2.112;2022-11-04T16:02:02;10.10;99.90
25556;DHT22;13447;57.174;-2.112;2022-11-04T16:04:30;10.00;99.90
25556;DHT22;13447;57.174;-2.112;2022-11-04T16:07:28;9.90;99.90
25556;DHT22;13447;57.174;-2.112;2022-11-04T16:09:56;9.90;99.90
25556;DHT22;13447;57.174;-2.112;2022-11-04T16:14:57;9.60;99.90
25556;DHT22;13447;57.174;-2.112;2022-11-04T16:17:25;9.70;99.90
25556;DHT22;13447;57.174;-2.112;2022-11-04T16:19:57;9.70;99.90
25556;DHT22;13447;57.174;-2.112;2022-11-04T16:22:31;9.70;99.90
25556;DHT22;13447;57.174;-2.112;2022-11-04T16:25:00;9.70;99.90
25556;DHT22;13447;57.174;-2.112;2022-11-04T16:27:30;9.70;99.90
25556;DHT22;13447;57.174;-2.112;2022-11-04T16:32:44;9.70;99.90
25556;DHT22;13447;57.174;-2.112;2022-11-04T16:35:22;9.80;99.90
25556;DHT22;13447;57.174;-2.112;2022-11-04T16:37:51;9.70;99.90
25556;DHT22;13447;57.174;-2.112;2022-11-04T16:40:19;9.60;99.90
25556;DHT22;13447;57.174;-2.112;2022-11-04T16:42:47;9.60;99.90
25556;DHT22;13447;57.174;-2.112;2022-11-04T16:45:26;9.40;99.90
25556;DHT22;13447;57.174;-2.112;2022-11-04T16:47:54;9.30;99.90
25556;DHT22;13447;57.174;-2.112;2022-11-04T16:50:21;9.20;99.90
25556;DHT22;13447;57.174;-2.112;2022-11-04T16:52:50;9.10;99.90
25556;DHT22;13447;57.174;-2.112;2022-11-04T16:55:17;9.10;99.90
25556;DHT22;13447;57.174;-2.112;2022-11-04T16:57:45;9.20;99.90
25556;DHT22;13447;57.174;-2.112;2022-11-04T17:00:23;9.10;99.90
25556;DHT22;13447;57.174;-2.112;2022-11-04T17:02:50;9.10;99.90
25556;DHT22;13447;57.174;-2.112;2022-11-04T17:05:19;9.10;99.90
25556;DHT22;13447;57.174;-2.112;2022-11-04T17:07:46;9.10;99.90
25556;DHT22;13447;57.174;-2.112;2022-11-04T17:10:26;9.20;99.90
25556;DHT22;13447;57.174;-2.112;2022-11-04T17:12:53;9.10;99.90
25556;DHT22;13447;57.174;-2.112;2022-11-04T17:15:20;9.10;99.90
25556;DHT22;13447;57.174;-2.112;2022-11-04T17:17:48;9.00;99.90
25556;DHT22;13447;57.174;-2.112;2022-11-04T17:20:16;8.90;99.90
25556;DHT22;13447;57.174;-2.112;2022-11-04T17:22:44;8.80;99.90
25556;DHT22;13447;57.174;-2.112;2022-11-04T17:25:18;8.70;99.90
25556;DHT22;13447;57.174;-2.112;2022-11-04T17:27:46;8.50;99.90
25556;DHT22;13447;57.174;-2.112;2022-11-04T17:30:15;8.30;99.90
25556;DHT22;13447;57.174;-2.112;2022-11-04T17:32:43;8.20;99.90
25556;DHT22;13447;57.174;-2.112;2022-11-04T17:35:11;8.00;99.90
25556;DHT22;13447;57.174;-2.112;2022-11-04T17:37:38;7.90;99.90
25556;DHT22;13447;57.174;-2.112;2022-11-04T17:40:06;7.90;99.90
25556;DHT22;13447;57.174;-2.112;2022-11-04T17:42:33;7.80;99.90
25556;DHT22;13447;57.174;-2.112;2022-11-04T17:45:19;7.80;99.90
25556;DHT22;13447;57.174;-2.112;2022-11-04T17:47:47;7.70;99.90
25556;DHT22;13447;57.174;-2.112;2022-11-04T17:50:14;7.70;99.90
25556;DHT22;13447;57.174;-2.112;2022-11-04T17:52:41;7.60;99.90
25556;DHT22;13447;57.174;-2.112;2022-11-04T17:55:08;7.60;99.90
25556;DHT22;13447;57.174;-2.112;2022-11-04T17:57:42;7.60;99.90
25556;DHT22;13447;57.174;-2.112;2022-11-04T18:00:09;7.50;99.90
25556;DHT22;13447;57.174;-2.112;2022-11-04T18:02:40;7.60;99.90
25556;DHT22;13447;57.174;-2.112;2022-11-04T18:05:08;7.60;99.90
25556;DHT22;13447;57.174;-2.112;2022-11-04T18:07:35;7.70;99.90
25556;DHT22;13447;57.174;-2.112;2022-11-04T18:10:02;7.80;99.90
25556;DHT22;13447;57.174;-2.112;2022-11-04T18:12:30;7.90;99.90
